createdAt,value
2019-04-29T00:01:21.117Z,97791.55
2019-04-29T00:03:47.927Z,97791.79
2019-04-29T00:06:14.523Z,97793.88
2019-04-29T00:08:41.303Z,97792.77
2019-04-29T00:11:08.231Z,97789.50
2019-04-29T00:13:35.096Z,97791.63
2019-04-29T00:16:29.518Z,97787.00
2019-04-29T00:19:19.016Z,97790.80
2019-04-29T00:21:45.887Z,97785.40
2019-04-29T00:24:12.524Z,97781.35
2019-04-29T00:26:39.162Z,97781.59
2019-04-29T00:29:05.804Z,97784.58
2019-04-29T00:31:32.435Z,97783.77
2019-04-29T00:33:59.255Z,97784.05
2019-04-29T00:36:29.368Z,97781.08
2019-04-29T00:39:14.397Z,97784.06
2019-04-29T00:42:02.076Z,97780.02
2019-04-29T00:44:31.754Z,97779.47
2019-04-29T00:46:58.833Z,97778.95
2019-04-29T00:49:25.729Z,97780.30
2019-04-29T00:51:52.367Z,97784.10
2019-04-29T00:54:28.963Z,97784.67
2019-04-29T00:56:56.088Z,97785.78
2019-04-29T00:59:22.645Z,97786.64
2019-04-29T01:01:49.389Z,97781.53
2019-04-29T01:04:16.269Z,97785.09
2019-04-29T01:06:42.905Z,97785.95
2019-04-29T01:09:13.319Z,97787.58
2019-04-29T01:11:40.013Z,97785.70
2019-04-29T01:14:06.661Z,97782.76
2019-04-29T01:16:33.333Z,97785.21
2019-04-29T01:19:00.253Z,97784.97
2019-04-29T01:21:26.796Z,97780.11
2019-04-29T01:23:53.481Z,97779.62
2019-04-29T01:26:38.401Z,97775.61
2019-04-29T01:29:06.105Z,97775.08
2019-04-29T01:31:32.844Z,97773.48
2019-04-29T01:34:06.004Z,97777.28
2019-04-29T01:36:36.441Z,97780.02
2019-04-29T01:39:05.700Z,97782.47
2019-04-29T01:41:38.435Z,97777.89
2019-04-29T01:44:06.326Z,97775.77
2019-04-29T01:46:33.098Z,97781.73
2019-04-29T01:48:59.850Z,97778.75
2019-04-29T01:51:26.588Z,97782.27
2019-04-29T01:53:53.423Z,97779.84
2019-04-29T01:56:20.132Z,97779.31
2019-04-29T01:58:46.883Z,97778.50
2019-04-29T02:01:13.467Z,97777.72
2019-04-29T02:03:40.111Z,97779.64
2019-04-29T02:06:07.070Z,97777.47
2019-04-29T02:08:33.708Z,97778.05
2019-04-29T02:11:00.892Z,97778.05
2019-04-29T02:13:27.440Z,97772.40
2019-04-29T02:15:54.112Z,97767.78
2019-04-29T02:18:20.648Z,97768.59
2019-04-29T02:20:47.383Z,97775.10
2019-04-29T02:23:32.523Z,97767.82
2019-04-29T02:25:59.214Z,97769.45
2019-04-29T02:28:25.960Z,97774.32
2019-04-29T02:30:52.904Z,97770.80
2019-04-29T02:33:19.679Z,97771.62
2019-04-29T02:35:46.525Z,97769.45
2019-04-29T02:38:27.081Z,97774.32
2019-04-29T02:41:02.816Z,97769.20
2019-04-29T02:43:31.079Z,97765.44
2019-04-29T02:45:57.876Z,97761.39
2019-04-29T02:48:29.111Z,97762.50
2019-04-29T02:50:53.130Z,97760.08
2019-04-29T02:53:20.010Z,97757.12
2019-04-29T02:55:50.351Z,97760.64
2019-04-29T02:58:54.896Z,97757.45
2019-04-29T03:01:46.841Z,97755.03
2019-04-29T03:04:25.106Z,97758.02
2019-04-29T03:06:51.817Z,97751.02
2019-04-29T03:09:18.615Z,97755.35
2019-04-29T03:11:45.567Z,97757.52
2019-04-29T03:14:12.215Z,97760.50
2019-04-29T03:16:39.100Z,97761.85
2019-04-29T03:19:11.112Z,97754.32
2019-04-29T03:21:43.846Z,97754.07
2019-04-29T03:24:10.662Z,97752.19
2019-04-29T03:26:37.309Z,97754.89
2019-04-29T03:29:06.926Z,97756.77
2019-04-29T03:31:39.211Z,97754.89
2019-04-29T03:34:02.381Z,97754.36
2019-04-29T03:36:29.119Z,97758.41
2019-04-29T03:38:55.840Z,97755.98
2019-04-29T03:41:22.603Z,97756.27
2019-04-29T03:43:49.262Z,97758.44
2019-04-29T03:46:16.612Z,97751.69
2019-04-29T03:48:43.263Z,97749.80
2019-04-29T03:51:09.808Z,97748.73
2019-04-29T03:53:36.463Z,97750.91
2019-04-29T03:56:03.103Z,97750.66
2019-04-29T03:58:30.238Z,97752.83
2019-04-29T04:01:04.853Z,97757.97
2019-04-29T04:03:35.054Z,97758.26
2019-04-29T04:06:27.597Z,97757.47
2019-04-29T04:09:06.247Z,97763.41
2019-04-29T04:11:26.899Z,97765.58
2019-04-29T04:13:53.643Z,97770.73
2019-04-29T04:16:39.955Z,97766.67
2019-04-29T04:19:08.437Z,97769.91
2019-04-29T04:21:37.881Z,97767.77
2019-04-29T04:24:04.546Z,97774.81
2019-04-29T04:26:31.285Z,97775.09
2019-04-29T04:28:58.076Z,97772.95
2019-04-29T04:31:24.728Z,97771.61
2019-04-29T04:33:51.544Z,97771.11
2019-04-29T04:36:18.096Z,97771.92
2019-04-29T04:38:45.083Z,97774.09
2019-04-29T04:41:11.734Z,97780.06
2019-04-29T04:43:38.398Z,97781.95
2019-04-29T04:46:05.222Z,97782.48
2019-04-29T04:48:32.063Z,97786.84
2019-04-29T04:50:59.049Z,97783.36
2019-04-29T04:53:25.699Z,97783.11
2019-04-29T04:55:54.469Z,97782.04
2019-04-29T04:58:21.212Z,97786.09
2019-04-29T05:00:47.856Z,97790.17
2019-04-29T05:03:14.508Z,97784.23
2019-04-29T05:05:42.774Z,97788.86
2019-04-29T05:08:09.722Z,97788.89
2019-04-29T05:10:36.560Z,97782.67
2019-04-29T05:13:03.475Z,97791.88
2019-04-29T05:15:30.022Z,97796.50
2019-04-29T05:17:58.647Z,97788.95
2019-04-29T05:20:25.418Z,97788.45
2019-04-29T05:23:01.030Z,97785.20
2019-04-29T05:25:29.422Z,97792.00
2019-04-29T05:27:56.271Z,97793.66
2019-04-29T05:30:23.348Z,97794.22
2019-04-29T05:32:49.929Z,97791.83
2019-04-29T05:35:20.832Z,97791.32
2019-04-29T05:37:56.520Z,97791.61
2019-04-29T05:41:01.195Z,97793.27
2019-04-29T05:43:35.831Z,97788.70
2019-04-29T05:46:08.873Z,97790.64
2019-04-29T05:48:35.771Z,97795.80
2019-04-29T05:51:27.306Z,97790.70
2019-04-29T05:53:56.123Z,97793.15
2019-04-29T05:56:23.035Z,97791.54
2019-04-29T05:58:49.770Z,97789.40
2019-04-29T06:01:20.594Z,97787.80
2019-04-29T06:03:47.551Z,97794.86
2019-04-29T06:06:14.408Z,97785.70
2019-04-29T06:08:41.156Z,97789.25
2019-04-29T06:11:09.015Z,97781.66
2019-04-29T06:13:35.825Z,97785.77
2019-04-29T06:16:02.894Z,97787.42
2019-04-29T06:18:29.631Z,97792.32
2019-04-29T06:21:08.248Z,97798.57
2019-04-29T06:23:24.882Z,97788.56
2019-04-29T06:25:51.916Z,97790.48
2019-04-29T06:28:21.650Z,97792.67
2019-04-29T06:30:50.091Z,97793.23
2019-04-29T06:33:15.706Z,97796.75
2019-04-29T06:35:43.269Z,97796.77
2019-04-29T06:38:10.882Z,97801.13
2019-04-29T06:40:37.664Z,97801.97
2019-04-29T06:43:04.454Z,97801.45
2019-04-29T06:45:31.163Z,97797.41
2019-04-29T06:47:58.215Z,97803.41
2019-04-29T06:50:25.115Z,97808.05
2019-04-29T06:52:51.861Z,97811.58
2019-04-29T06:55:18.529Z,97813.03
2019-04-29T06:57:45.347Z,97813.09
2019-04-29T07:00:12.246Z,97807.98
2019-04-29T07:02:39.019Z,97812.33
2019-04-29T07:05:06.020Z,97812.63
2019-04-29T07:07:32.721Z,97808.58
2019-04-29T07:09:59.367Z,97805.03
2019-04-29T07:12:25.921Z,97801.48
2019-04-29T07:14:52.731Z,97807.98
2019-04-29T07:17:19.582Z,97803.63
2019-04-29T07:19:46.289Z,97801.44
2019-04-29T07:22:13.078Z,97799.81
2019-04-29T07:24:39.659Z,97809.58
2019-04-29T07:27:06.383Z,97804.42
2019-04-29T07:29:33.541Z,97807.15
2019-04-29T07:32:04.744Z,97809.08
2019-04-29T07:34:33.891Z,97804.25
2019-04-29T07:36:59.441Z,97802.37
2019-04-29T07:39:31.111Z,97806.45
2019-04-29T07:41:55.097Z,97804.58
2019-04-29T07:44:22.929Z,97798.36
2019-04-29T07:46:59.147Z,97798.93
2019-04-29T07:49:21.807Z,97792.18
2019-04-29T07:51:48.635Z,97789.48
2019-04-29T07:54:16.342Z,97788.66
2019-04-29T07:56:44.063Z,97794.64
2019-04-29T07:59:11.295Z,97787.06
2019-04-29T08:01:38.214Z,97785.44
2019-04-29T08:04:09.033Z,97774.61
2019-04-29T08:06:38.332Z,97774.08
2019-04-29T08:09:07.959Z,97783.03
2019-04-29T08:11:35.441Z,97784.11
2019-04-29T08:14:02.377Z,97785.47
2019-04-29T08:16:30.531Z,97784.67
2019-04-29T08:18:57.214Z,97793.63
2019-04-29T08:21:23.913Z,97789.82
2019-04-29T08:23:50.719Z,97789.88
2019-04-29T08:26:17.490Z,97788.27
2019-04-29T08:28:44.658Z,97786.12
2019-04-29T08:31:11.810Z,97786.12
2019-04-29T08:33:38.555Z,97793.99
2019-04-29T08:36:05.355Z,97789.94
2019-04-29T08:38:32.029Z,97783.98
2019-04-29T08:40:58.850Z,97779.91
2019-04-29T08:44:15.203Z,97782.87
2019-04-29T08:46:33.070Z,97788.04
2019-04-29T08:49:01.062Z,97781.80
2019-04-29T08:51:28.611Z,97778.52
2019-04-29T08:53:55.209Z,97779.88
2019-04-29T08:56:22.043Z,97781.47
2019-04-29T08:58:49.411Z,97782.81
2019-04-29T09:01:17.290Z,97782.77
2019-04-29T09:03:44.128Z,97782.20
2019-04-29T09:06:11.142Z,97785.98
2019-04-29T09:08:37.933Z,97785.13
2019-04-29T09:11:08.056Z,97780.23
2019-04-29T09:13:33.179Z,97785.92
2019-04-29T09:15:59.997Z,97785.05
2019-04-29T09:18:26.922Z,97777.69
2019-04-29T09:20:53.478Z,97774.95
2019-04-29T09:23:23.805Z,97774.09
2019-04-29T09:26:28.350Z,97766.73
2019-04-29T09:28:55.098Z,97764.22
2019-04-29T09:31:21.879Z,97771.01
2019-04-29T09:33:51.021Z,97764.73
2019-04-29T09:36:17.680Z,97756.02
2019-04-29T09:38:44.565Z,97762.50
2019-04-29T09:41:34.996Z,97759.22
2019-04-29T09:44:13.946Z,97748.32
2019-04-29T09:46:40.590Z,97742.88
2019-04-29T09:49:08.696Z,97743.09
2019-04-29T09:51:35.559Z,97749.09
2019-04-29T09:54:02.310Z,97747.22
2019-04-29T09:56:29.058Z,97755.08
2019-04-29T09:59:15.260Z,97755.69
2019-04-29T10:01:50.393Z,97746.98
2019-04-29T10:04:55.783Z,97744.81
2019-04-29T10:07:12.987Z,97744.00
2019-04-29T10:09:39.687Z,97752.98
2019-04-29T10:12:06.639Z,97746.72
2019-04-29T10:14:33.430Z,97745.37
2019-04-29T10:17:19.800Z,97740.50
2019-04-29T10:19:58.461Z,97737.79
2019-04-29T10:22:25.580Z,97738.90
2019-04-29T10:24:52.302Z,97745.18
2019-04-29T10:27:19.072Z,97732.17
2019-04-29T10:29:50.707Z,97731.91
2019-04-29T10:32:17.994Z,97734.89
2019-04-29T10:34:44.862Z,97739.78
2019-04-29T10:37:11.568Z,97733.53
2019-04-29T10:40:10.563Z,97727.55
2019-04-29T10:42:34.834Z,97729.13
2019-04-29T10:45:23.845Z,97726.38
2019-04-29T10:48:03.360Z,97726.89
2019-04-29T10:50:31.962Z,97720.88
2019-04-29T10:52:59.068Z,97718.44
2019-04-29T10:55:29.979Z,97725.27
2019-04-29T10:57:55.027Z,97721.73
2019-04-29T11:00:44.720Z,97716.27
2019-04-29T11:03:11.588Z,97719.52
2019-04-29T11:06:00.268Z,97724.70
2019-04-29T11:08:38.262Z,97719.30
2019-04-29T11:11:07.520Z,97720.78
2019-04-29T11:13:34.369Z,97724.45
2019-04-29T11:16:01.189Z,97716.90
2019-04-29T11:18:28.036Z,97721.02
2019-04-29T11:20:55.509Z,97726.22
2019-04-29T11:23:30.562Z,97724.88
2019-04-29T11:26:09.658Z,97721.41
2019-04-29T11:28:40.659Z,97727.94
2019-04-29T11:31:09.709Z,97726.59
2019-04-29T11:33:55.996Z,97726.36
2019-04-29T11:36:24.134Z,97723.39
2019-04-29T11:38:50.817Z,97723.12
2019-04-29T11:41:19.766Z,97729.09
2019-04-29T11:43:46.717Z,97726.92
2019-04-29T11:46:15.748Z,97719.87
2019-04-29T11:48:42.712Z,97718.78
2019-04-29T11:51:19.927Z,97719.91
2019-04-29T11:53:46.632Z,97714.74
2019-04-29T11:56:14.070Z,97711.22
2019-04-29T11:58:57.321Z,97709.59
2019-04-29T12:01:41.152Z,97717.73
2019-04-29T12:04:13.312Z,97708.77
2019-04-29T12:06:40.113Z,97707.41
2019-04-29T12:09:07.727Z,97707.14
2019-04-29T12:11:36.293Z,97703.61
2019-04-29T12:14:11.286Z,97707.41
2019-04-29T12:16:47.858Z,97698.45
2019-04-29T12:19:26.785Z,97696.01
2019-04-29T12:21:53.535Z,97700.05
2019-04-29T12:24:20.482Z,97703.31
2019-04-29T12:26:47.274Z,97697.64
2019-04-29T12:29:18.126Z,97698.45
2019-04-29T12:32:14.600Z,97693.57
2019-04-29T12:35:09.919Z,97690.31
2019-04-29T12:37:54.760Z,97698.19
2019-04-29T12:40:40.251Z,97695.20
2019-04-29T12:43:25.400Z,97687.88
2019-04-29T12:46:11.842Z,97686.52
2019-04-29T12:48:39.231Z,97679.73
2019-04-29T12:51:06.009Z,97677.56
2019-04-29T12:53:32.730Z,97677.83
2019-04-29T12:55:59.699Z,97675.12
2019-04-29T12:58:26.455Z,97667.79
2019-04-29T13:00:59.923Z,97666.44
2019-04-29T13:03:38.925Z,97671.32
2019-04-29T13:06:04.656Z,97665.08
2019-04-29T13:08:44.269Z,97675.16
2019-04-29T13:11:14.795Z,97661.58
2019-04-29T13:13:40.230Z,97656.16
2019-04-29T13:16:20.182Z,97649.92
2019-04-29T13:19:12.532Z,97648.29
2019-04-29T13:21:34.707Z,97643.41
2019-04-29T13:24:13.582Z,97642.32
2019-04-29T13:26:33.316Z,97640.69
2019-04-29T13:29:01.781Z,97641.51
2019-04-29T13:31:38.175Z,97639.88
2019-04-29T13:34:09.006Z,97633.37
2019-04-29T13:36:28.454Z,97627.39
2019-04-29T13:38:55.691Z,97629.02
2019-04-29T13:41:24.433Z,97629.30
2019-04-29T13:43:53.632Z,97630.37
2019-04-29T13:46:46.189Z,97622.51
2019-04-29T13:49:18.288Z,97631.73
2019-04-29T13:51:45.280Z,97613.02
2019-04-29T13:54:12.158Z,97615.45
2019-04-29T13:56:54.788Z,97609.76
2019-04-29T13:59:12.297Z,97608.13
2019-04-29T14:01:59.972Z,97608.41
2019-04-29T14:04:25.125Z,97604.61
2019-04-29T14:06:56.634Z,97605.42
2019-04-29T14:09:18.408Z,97602.71
2019-04-29T14:11:45.921Z,97599.19
2019-04-29T14:14:12.607Z,97600.84
2019-04-29T14:16:43.189Z,97604.91
2019-04-29T14:19:08.717Z,97605.45
2019-04-29T14:21:36.343Z,97596.78
2019-04-29T14:24:03.116Z,97601.39
2019-04-29T14:26:29.817Z,97601.66
2019-04-29T14:28:56.855Z,97609.53
2019-04-29T14:31:24.532Z,97603.83
2019-04-29T14:34:02.848Z,97606.00
2019-04-29T14:36:29.687Z,97599.48
2019-04-29T14:38:56.562Z,97599.22
2019-04-29T14:41:23.636Z,97604.10
2019-04-29T14:44:30.264Z,97600.03
2019-04-29T14:47:17.961Z,97603.28
2019-04-29T14:49:48.295Z,97564.77
2019-04-29T14:52:15.498Z,97601.36
2019-04-29T14:54:43.582Z,97601.90
2019-04-29T14:57:10.366Z,97605.97
2019-04-29T14:59:37.704Z,97603.28
2019-04-29T15:02:16.416Z,97603.55
2019-04-29T15:04:40.653Z,97610.59
2019-04-29T15:07:07.485Z,97607.06
2019-04-29T15:09:46.563Z,97609.77
2019-04-29T15:12:23.590Z,97606.52
2019-04-29T15:15:19.371Z,97617.63
2019-04-29T15:18:16.029Z,97617.63
2019-04-29T15:20:42.466Z,97621.15
2019-04-29T15:23:09.040Z,97627.38
2019-04-29T15:25:35.955Z,97624.96
2019-04-29T15:28:02.838Z,97627.94
2019-04-29T15:30:36.706Z,97625.77
2019-04-29T15:33:01.329Z,97624.67
2019-04-29T15:35:27.986Z,97622.50
2019-04-29T15:37:54.747Z,97621.67
2019-04-29T15:40:26.117Z,97633.05
2019-04-29T15:42:53.176Z,97632.78
2019-04-29T15:45:19.759Z,97633.05
2019-04-29T15:47:47.193Z,97628.70
2019-04-29T15:50:18.642Z,97633.31
2019-04-29T15:52:42.870Z,97625.72
2019-04-29T15:55:09.649Z,97631.70
2019-04-29T15:57:37.026Z,97626.28
2019-04-29T16:00:20.739Z,97625.45
2019-04-29T16:02:35.929Z,97627.35
2019-04-29T16:05:14.850Z,97627.89
2019-04-29T16:07:59.258Z,97618.14
2019-04-29T16:10:41.419Z,97618.95
2019-04-29T16:13:09.265Z,97617.05
2019-04-29T16:15:36.310Z,97617.59
2019-04-29T16:18:05.407Z,97616.24
2019-04-29T16:20:34.485Z,97618.13
2019-04-29T16:23:02.220Z,97617.85
2019-04-29T16:25:29.094Z,97620.29
2019-04-29T16:27:55.955Z,97616.22
2019-04-29T16:30:25.973Z,97612.14
2019-04-29T16:32:51.787Z,97608.61
2019-04-29T16:37:47.818Z,97615.13
2019-04-29T16:40:14.910Z,97613.47
2019-04-29T16:43:01.235Z,97611.60
2019-04-29T16:45:51.363Z,97618.36
2019-04-29T16:48:12.940Z,97609.41
2019-04-29T16:50:39.605Z,97607.51
2019-04-29T16:53:06.391Z,97614.25
2019-04-29T16:55:35.993Z,97607.75
2019-04-29T16:58:06.581Z,97606.92
2019-04-29T17:00:33.070Z,97612.88
2019-04-29T17:02:59.900Z,97615.86
2019-04-29T17:05:27.073Z,97615.05
2019-04-29T17:07:54.244Z,97610.72
2019-04-29T17:10:37.390Z,97608.83
2019-04-29T17:13:09.149Z,97610.98
2019-04-29T17:15:34.448Z,97615.32
2019-04-29T17:18:01.296Z,97618.83
2019-04-29T17:20:28.254Z,97613.14
2019-04-29T17:22:57.495Z,97624.51
2019-04-29T17:25:24.366Z,97624.51
2019-04-29T17:28:29.147Z,97622.34
2019-04-29T17:31:26.686Z,97619.36
2019-04-29T17:34:00.091Z,97620.44
2019-04-29T17:35:15.776Z,97614.02
2019-04-29T17:36:27.565Z,97625.58
2019-04-29T17:38:54.256Z,97628.82
2019-04-29T17:41:21.138Z,97623.69
2019-04-29T17:44:09.773Z,97626.12
2019-04-29T17:46:55.347Z,97625.58
2019-04-29T17:49:30.658Z,97625.03
2019-04-29T17:52:02.593Z,97625.84
2019-04-29T17:54:31.969Z,97625.56
2019-04-29T17:57:25.144Z,97590.54
2019-04-29T17:59:52.361Z,97634.78
2019-04-29T18:02:37.231Z,97629.89
2019-04-29T18:05:20.298Z,97626.64
2019-04-29T18:07:53.155Z,97622.03
2019-04-29T18:10:38.639Z,97623.63
2019-04-29T18:13:06.045Z,97616.31
2019-04-29T18:15:51.680Z,97609.81
2019-04-29T18:18:08.773Z,97619.01
2019-04-29T18:20:42.668Z,97616.81
2019-04-29T18:23:27.875Z,97611.94
2019-04-29T18:25:58.971Z,97611.91
2019-04-29T18:28:26.184Z,97617.84
2019-04-29T18:30:56.063Z,97617.56
2019-04-29T18:33:23.367Z,97606.19
2019-04-29T18:36:01.249Z,97607.27
2019-04-29T18:38:20.603Z,97616.72
2019-04-29T18:40:49.504Z,97620.22
2019-04-29T18:43:19.178Z,97618.05
2019-04-29T18:45:55.856Z,97616.95
2019-04-29T18:48:21.471Z,97621.53
2019-04-29T18:50:46.895Z,97624.53
2019-04-29T18:53:15.472Z,97624.53
2019-04-29T18:55:42.399Z,97632.08
2019-04-29T18:58:09.134Z,97629.65
2019-04-29T19:00:35.948Z,97626.69
2019-04-29T19:03:03.224Z,97636.69
2019-04-29T19:05:35.637Z,97634.80
2019-04-29T19:08:12.174Z,97638.84
2019-04-29T19:10:34.528Z,97631.30
2019-04-29T19:13:05.383Z,97642.90
2019-04-29T19:15:35.434Z,97630.48
2019-04-29T19:18:05.411Z,97632.37
2019-04-29T19:20:31.297Z,97630.48
2019-04-29T19:23:05.868Z,97604.41
2019-04-29T19:25:29.805Z,97632.05
2019-04-29T19:27:58.723Z,97625.55
2019-04-29T19:30:29.011Z,97620.14
2019-04-29T19:33:00.275Z,97626.09
2019-04-29T19:35:25.216Z,97625.27
2019-04-29T19:37:52.448Z,97567.98
2019-04-29T19:40:19.253Z,97624.73
2019-04-29T19:42:47.950Z,97613.64
2019-04-29T19:45:17.259Z,97623.11
2019-04-29T19:47:47.066Z,97622.03
2019-04-29T19:50:16.666Z,97622.59
2019-04-29T19:52:41.282Z,97620.14
2019-04-29T19:55:08.146Z,97622.84
2019-04-29T19:57:37.977Z,97622.83
2019-04-29T20:00:06.769Z,97627.16
2019-04-29T20:02:35.474Z,97619.33
2019-04-29T20:05:31.679Z,97623.38
2019-04-29T20:07:56.545Z,97626.62
2019-04-29T20:10:23.610Z,97628.52
2019-04-29T20:12:53.367Z,97620.68
2019-04-29T20:15:20.622Z,97627.44
2019-04-29T20:18:12.822Z,97633.66
2019-04-29T20:21:09.028Z,97627.72
2019-04-29T20:23:37.006Z,97624.48
2019-04-29T20:26:13.971Z,97629.63
2019-04-29T20:28:30.354Z,97628.02
2019-04-29T20:31:14.992Z,97633.14
2019-04-29T20:33:26.176Z,97631.25
2019-04-29T20:35:53.239Z,97628.55
2019-04-29T20:38:20.378Z,97627.75
2019-04-29T20:40:47.732Z,97617.20
2019-04-29T20:43:16.027Z,97622.06
2019-04-29T20:45:45.314Z,97618.83
2019-04-29T20:48:16.175Z,97611.25
2019-04-29T20:50:41.305Z,97605.84
2019-04-29T20:53:22.002Z,97607.19
2019-04-29T20:55:48.971Z,97604.20
2019-04-29T20:58:16.013Z,97605.28
2019-04-29T21:00:45.038Z,97607.73
2019-04-29T21:03:12.059Z,97610.44
2019-04-29T21:05:47.394Z,97606.10
2019-04-29T21:08:14.259Z,97597.73
2019-04-29T21:10:38.024Z,97602.06
2019-04-29T21:13:25.752Z,97599.36
2019-04-29T21:15:59.564Z,97603.69
2019-04-29T21:18:27.069Z,97596.11
2019-04-29T21:20:55.135Z,97596.11
2019-04-29T21:23:23.742Z,97603.13
2019-04-29T21:25:50.606Z,97602.05
2019-04-29T21:28:17.691Z,97600.67
2019-04-29T21:30:45.219Z,97597.16
2019-04-29T21:33:17.871Z,97596.86
2019-04-29T21:35:58.029Z,97600.89
2019-04-29T21:38:55.729Z,97603.86
2019-04-29T21:41:27.466Z,97594.64
2019-04-29T21:43:55.268Z,97600.58
2019-04-29T21:46:25.797Z,97592.45
2019-04-29T21:48:50.983Z,97587.30
2019-04-29T21:51:17.719Z,97586.77
2019-04-29T21:53:45.919Z,97588.09
2019-04-29T21:56:13.079Z,97583.75
2019-04-29T21:58:39.744Z,97591.38
2019-04-29T22:01:07.615Z,97587.59
2019-04-29T22:03:34.752Z,97591.91
2019-04-29T22:06:01.427Z,97598.67
2019-04-29T22:08:30.063Z,97589.75
2019-04-29T22:10:58.313Z,97581.09
2019-04-29T22:13:25.801Z,97579.48
2019-04-29T22:15:52.523Z,97576.25
2019-04-29T22:18:19.327Z,97583.82
2019-04-29T22:20:46.017Z,97587.08
2019-04-29T22:23:14.620Z,97586.28
2019-04-29T22:25:45.660Z,97582.23
2019-04-29T22:28:10.751Z,97577.09
2019-04-29T22:30:38.804Z,97568.43
2019-04-29T22:33:08.412Z,97574.93
2019-04-29T22:35:37.286Z,97589.82
2019-04-29T22:38:07.726Z,97590.64
2019-04-29T22:40:34.100Z,97594.69
2019-04-29T22:43:16.778Z,97583.34
2019-04-29T22:45:43.990Z,97589.56
2019-04-29T22:48:16.892Z,97582.27
2019-04-29T22:50:39.585Z,97583.09
2019-04-29T22:53:08.849Z,97582.28
2019-04-29T22:55:38.717Z,97588.78
2019-04-29T22:58:07.930Z,97586.63
2019-04-29T23:00:33.896Z,97581.76
2019-04-29T23:03:02.254Z,97573.92
2019-04-29T23:05:29.972Z,97569.87
2019-04-29T23:08:00.078Z,97570.16
2019-04-29T23:10:27.843Z,97576.09
2019-04-29T23:12:57.336Z,97572.86
2019-04-29T23:15:24.186Z,97570.42
2019-04-29T23:17:51.427Z,97569.06
2019-04-29T23:20:36.545Z,97565.29
2019-04-29T23:23:08.673Z,97568.27
2019-04-29T23:25:40.027Z,97567.16
2019-04-29T23:28:06.620Z,97567.73
2019-04-29T23:30:33.585Z,97559.86
2019-04-29T23:33:00.394Z,97553.38
2019-04-29T23:35:27.165Z,97553.10
2019-04-29T23:37:58.845Z,97548.50
2019-04-29T23:40:22.378Z,97551.77
2019-04-29T23:42:49.325Z,97548.52
2019-04-29T23:45:21.161Z,97551.52
2019-04-29T23:47:46.882Z,97539.33
2019-04-29T23:50:18.757Z,97538.79
2019-04-29T23:52:43.021Z,97532.03
2019-04-29T23:55:09.829Z,97527.43
2019-04-29T23:57:55.551Z,97529.59
